Time;durP1;ratioP1;P1;durP2;ratioP2;P2;SDS_P1;SDS_P2;PMS_P1;PMS_P2;Temp;Humidity;BMP_temperature;BMP_pressure;BME280_temperature;BME280_humidity;BME280_pressure;Samples;Min_cycle;Max_cycle;Signal;HPM_P1;HPM_P2
2022/05/24 00:02:19;;;;;;;9.50;9.20;;;16.80;99.90;;;;;;5162271;27;20240;-84
2022/05/24 00:04:50;;;;;;;9.40;9.10;;;16.80;99.90;;;;;;5154291;27;20289;-85
2022/05/24 00:07:19;;;;;;;9.38;9.07;;;16.90;99.90;;;;;;5151819;27;20278;-85
2022/05/24 00:09:47;;;;;;;9.40;9.10;;;16.90;99.90;;;;;;5149883;27;20229;-85
2022/05/24 00:12:16;;;;;;;9.60;9.30;;;16.90;99.90;;;;;;5147739;27;20229;-85
2022/05/24 00:17:28;;;;;;;9.43;9.13;;;16.90;99.90;;;;;;5148469;27;20208;-84
2022/05/24 00:19:56;;;;;;;9.43;9.13;;;16.90;99.90;;;;;;5148278;27;20239;-84
2022/05/24 00:22:27;;;;;;;9.40;9.10;;;16.90;99.90;;;;;;5148293;27;20232;-84
2022/05/24 00:25:00;;;;;;;9.40;9.10;;;16.80;99.90;;;;;;5147619;27;20252;-83
2022/05/24 00:27:32;;;;;;;9.30;9.00;;;16.80;99.90;;;;;;5147179;27;20224;-84
2022/05/24 00:30:01;;;;;;;9.50;9.20;;;16.80;99.90;;;;;;5147358;27;20228;-84
2022/05/24 00:32:31;;;;;;;9.25;8.95;;;16.80;99.90;;;;;;5146212;27;20277;-84
2022/05/24 00:35:00;;;;;;;9.10;8.80;;;16.80;99.90;;;;;;5146232;27;20235;-84
2022/05/24 00:37:30;;;;;;;9.00;8.80;;;16.80;99.90;;;;;;5146358;27;20289;-85
2022/05/24 00:39:59;;;;;;;9.15;8.85;;;16.80;99.90;;;;;;5146427;27;20224;-84
2022/05/24 00:42:30;;;;;;;9.20;8.90;;;16.70;99.90;;;;;;5146399;27;20235;-84
2022/05/24 00:45:07;;;;;;;9.70;9.40;;;16.80;99.90;;;;;;5145761;27;20245;-85
2022/05/24 00:47:47;;;;;;;9.43;9.13;;;16.70;99.90;;;;;;5145589;27;20232;-85
2022/05/24 00:50:25;;;;;;;9.13;8.82;;;16.80;99.90;;;;;;5145641;27;20239;-85
2022/05/24 00:53:02;;;;;;;9.30;9.00;;;16.80;99.90;;;;;;5145392;27;20240;-85
2022/05/24 00:55:50;;;;;;;9.40;9.10;;;16.80;99.90;;;;;;5144816;27;20324;-85
2022/05/24 00:58:27;;;;;;;9.27;8.98;;;16.80;99.90;;;;;;5145407;27;20313;-85
2022/05/24 01:00:57;;;;;;;9.13;8.85;;;16.80;99.90;;;;;;5145215;27;20238;-85
2022/05/24 01:03:26;;;;;;;9.00;8.80;;;16.90;99.90;;;;;;5144568;27;20239;-85
2022/05/24 01:05:56;;;;;;;9.02;8.80;;;16.90;99.90;;;;;;5144568;27;20228;-85
2022/05/24 01:08:27;;;;;;;9.30;9.00;;;16.90;99.90;;;;;;5144847;27;20224;-85
2022/05/24 01:10:55;;;;;;;8.77;8.57;;;16.90;99.90;;;;;;5145050;27;21081;-86
2022/05/24 01:13:26;;;;;;;8.80;8.60;;;16.90;99.90;;;;;;5144804;27;20254;-85
2022/05/24 01:15:55;;;;;;;8.90;8.70;;;16.80;99.90;;;;;;5144372;27;20262;-85
2022/05/24 01:18:25;;;;;;;8.65;8.45;;;16.80;99.90;;;;;;5144970;27;20702;-85
2022/05/24 01:21:02;;;;;;;8.73;8.52;;;16.80;99.90;;;;;;5144373;27;20224;-85
2022/05/24 01:23:48;;;;;;;8.93;8.73;;;16.80;99.90;;;;;;5144292;27;20239;-85
2022/05/24 01:26:29;;;;;;;8.90;8.70;;;16.80;99.90;;;;;;5143953;27;20289;-85
2022/05/24 01:29:04;;;;;;;8.88;8.68;;;16.80;99.90;;;;;;5144048;27;20244;-85
2022/05/24 01:36:09;;;;;;;8.68;8.48;;;16.80;99.90;;;;;;5144221;27;20235;-85
2022/05/24 01:37:08;;;;;;;8.70;8.50;;;16.70;99.90;;;;;;5143352;27;20208;-85
2022/05/24 01:39:37;;;;;;;8.50;8.30;;;16.70;99.90;;;;;;5143848;27;20212;-85
2022/05/24 01:42:07;;;;;;;8.63;8.43;;;16.70;99.90;;;;;;5143302;27;20231;-85
2022/05/24 01:44:48;;;;;;;8.52;8.32;;;16.70;99.90;;;;;;5143087;27;20286;-85
2022/05/24 01:47:17;;;;;;;8.57;8.38;;;16.70;99.90;;;;;;5143951;27;20232;-84
2022/05/24 01:49:52;;;;;;;8.63;8.43;;;16.70;99.90;;;;;;5143788;27;20228;-85
2022/05/24 01:52:25;;;;;;;8.80;8.60;;;16.70;99.90;;;;;;5144354;27;20253;-85
2022/05/24 01:55:00;;;;;;;8.82;8.63;;;16.70;99.90;;;;;;5144028;27;20247;-85
2022/05/24 01:57:39;;;;;;;8.90;8.70;;;16.80;99.90;;;;;;5143574;27;20305;-85
2022/05/24 02:00:16;;;;;;;8.80;8.60;;;16.80;99.90;;;;;;5145517;27;20231;-85
2022/05/24 02:02:46;;;;;;;9.07;8.85;;;16.80;99.90;;;;;;5153696;27;20228;-85
2022/05/24 02:05:15;;;;;;;8.98;8.77;;;16.80;99.90;;;;;;5158382;27;20228;-85
2022/05/24 02:07:44;;;;;;;8.80;8.60;;;16.90;99.90;;;;;;5159905;27;20242;-85
2022/05/24 02:10:14;;;;;;;8.75;8.55;;;16.90;99.90;;;;;;5151833;27;20228;-85
2022/05/24 02:12:46;;;;;;;9.02;8.80;;;16.80;99.90;;;;;;5149978;27;20228;-85
2022/05/24 02:15:24;;;;;;;8.77;8.57;;;16.80;99.90;;;;;;5153882;27;20451;-85
2022/05/24 02:18:02;;;;;;;8.63;8.43;;;16.70;99.90;;;;;;5160955;27;20232;-85
2022/05/24 02:20:34;;;;;;;8.40;8.20;;;16.50;99.90;;;;;;5160869;27;20200;-85
2022/05/24 02:23:04;;;;;;;8.90;8.70;;;16.50;99.90;;;;;;5159539;27;20239;-85
2022/05/24 02:25:40;;;;;;;8.75;8.55;;;16.40;99.90;;;;;;5160588;27;20243;-85
2022/05/24 02:28:18;;;;;;;8.60;8.40;;;16.30;99.90;;;;;;5161591;27;20200;-85
2022/05/24 02:30:56;;;;;;;8.63;8.43;;;16.20;99.90;;;;;;5161080;27;20189;-85
2022/05/24 02:33:25;;;;;;;8.80;8.60;;;16.10;99.90;;;;;;5160638;27;20219;-85
2022/05/24 02:35:55;;;;;;;8.75;8.55;;;16.00;99.90;;;;;;5159519;27;20227;-86
2022/05/24 02:38:24;;;;;;;8.90;8.70;;;16.00;99.90;;;;;;5160789;27;20246;-86
2022/05/24 02:43:41;;;;;;;8.80;8.60;;;15.90;99.90;;;;;;5161331;27;20208;-86
2022/05/24 02:46:12;;;;;;;8.70;8.50;;;15.90;99.90;;;;;;5160604;27;20216;-86
2022/05/24 02:48:40;;;;;;;8.73;8.52;;;15.90;99.90;;;;;;5161230;27;20192;-85
2022/05/24 02:51:10;;;;;;;8.60;8.40;;;15.80;99.90;;;;;;5160122;27;20257;-86
2022/05/24 02:53:38;;;;;;;8.50;8.30;;;15.80;99.90;;;;;;5160494;27;20223;-86
2022/05/24 02:56:08;;;;;;;8.48;8.27;;;15.70;99.90;;;;;;5160942;27;20220;-86
2022/05/24 02:58:38;;;;;;;8.43;8.23;;;15.70;99.90;;;;;;5160619;27;20254;-86
2022/05/24 03:01:34;;;;;;;8.85;8.65;;;15.70;99.90;;;;;;5146076;27;20224;-86
2022/05/24 03:04:11;;;;;;;8.63;8.43;;;15.70;99.90;;;;;;5141610;27;20238;-86
2022/05/24 03:09:38;;;;;;;9.07;8.77;;;15.60;99.90;;;;;;5146026;27;20220;-86
2022/05/24 03:14:55;;;;;;;9.85;9.55;;;15.60;99.90;;;;;;5142026;27;20228;-86
2022/05/24 03:17:31;;;;;;;10.18;9.88;;;15.60;99.90;;;;;;5142699;27;20893;-86
2022/05/24 03:20:01;;;;;;;10.07;9.77;;;15.60;99.90;;;;;;5142770;27;20264;-85
2022/05/24 03:22:29;;;;;;;9.75;9.45;;;15.60;99.90;;;;;;5143190;27;20232;-85
2022/05/24 03:24:59;;;;;;;10.30;10.00;;;15.50;99.90;;;;;;5142990;27;20232;-86
2022/05/24 03:27:28;;;;;;;10.40;10.10;;;15.50;99.90;;;;;;5143863;27;20228;-85
2022/05/24 03:29:58;;;;;;;10.45;10.15;;;15.40;99.90;;;;;;5142565;27;20265;-85
2022/05/24 03:32:36;;;;;;;10.50;10.20;;;15.40;99.90;;;;;;5142899;27;20231;-85
2022/05/24 03:35:05;;;;;;;10.73;10.43;;;15.50;99.90;;;;;;5142968;27;20271;-86
2022/05/24 03:37:35;;;;;;;10.35;10.05;;;15.50;99.90;;;;;;5142936;27;20236;-86
2022/05/24 03:40:04;;;;;;;10.07;9.77;;;15.50;99.90;;;;;;5142726;27;20297;-86
2022/05/24 03:42:34;;;;;;;9.98;9.68;;;15.50;99.90;;;;;;5144102;27;20289;-86
2022/05/24 03:45:05;;;;;;;10.05;9.75;;;15.50;99.90;;;;;;5144951;27;20228;-86
2022/05/24 03:47:41;;;;;;;10.23;9.93;;;15.40;99.90;;;;;;5146941;27;20232;-86
2022/05/24 03:50:11;;;;;;;10.10;9.80;;;15.40;99.90;;;;;;5147290;27;20327;-86
2022/05/24 03:52:40;;;;;;;10.18;9.88;;;15.40;99.90;;;;;;5147350;27;20228;-85
2022/05/24 03:55:10;;;;;;;9.98;9.68;;;15.30;99.90;;;;;;5146894;27;20240;-85
2022/05/24 04:00:27;;;;;;;10.10;9.80;;;15.30;99.90;;;;;;5146372;27;20216;-86
2022/05/24 04:05:25;;;;;;;9.88;9.57;;;15.30;99.90;;;;;;5182403;22;20322;-82
2022/05/24 04:07:54;;;;;;;10.10;9.80;;;15.30;99.90;;;;;;5162996;27;20288;-81
2022/05/24 04:10:22;;;;;;;10.18;9.88;;;15.30;99.90;;;;;;5171199;27;20219;-81
2022/05/24 04:12:51;;;;;;;10.43;10.13;;;15.30;99.90;;;;;;5171857;27;20227;-82
2022/05/24 04:15:20;;;;;;;10.05;9.75;;;15.30;99.90;;;;;;5154396;27;20236;-82
2022/05/24 04:17:48;;;;;;;10.23;9.93;;;15.30;99.90;;;;;;5149448;27;20228;-81
2022/05/24 04:20:17;;;;;;;10.10;9.80;;;15.40;99.90;;;;;;5146352;27;20293;-81
2022/05/24 04:22:46;;;;;;;9.95;9.65;;;15.40;99.90;;;;;;5143944;27;20227;-82
2022/05/24 04:25:15;;;;;;;9.85;9.55;;;15.50;99.90;;;;;;5144762;27;20382;-81
2022/05/24 04:27:43;;;;;;;10.20;9.90;;;15.50;99.90;;;;;;5150625;27;20239;-82
2022/05/24 04:30:13;;;;;;;10.20;9.90;;;15.50;99.90;;;;;;5145513;27;20224;-82
2022/05/24 04:32:42;;;;;;;10.18;9.88;;;15.50;99.90;;;;;;5145026;27;20390;-82
2022/05/24 04:35:12;;;;;;;10.18;9.88;;;15.50;99.90;;;;;;5143302;27;20297;-82
2022/05/24 04:37:40;;;;;;;9.93;9.63;;;15.50;99.90;;;;;;5143040;27;20224;-82
2022/05/24 04:40:11;;;;;;;9.95;9.65;;;15.50;99.90;;;;;;5142895;27;20304;-81
2022/05/24 04:42:38;;;;;;;10.10;9.80;;;15.50;99.90;;;;;;5142572;27;20216;-81
2022/05/24 04:45:10;;;;;;;9.80;9.50;;;15.50;99.90;;;;;;5141955;27;20235;-81
2022/05/24 04:47:39;;;;;;;10.00;9.70;;;15.50;99.90;;;;;;5153324;27;20273;-82
2022/05/24 04:50:10;;;;;;;9.57;9.27;;;15.60;99.90;;;;;;5161010;27;20212;-82
2022/05/24 04:52:40;;;;;;;9.50;9.20;;;15.70;99.90;;;;;;5161469;27;20195;-81
2022/05/24 04:55:14;;;;;;;9.93;9.63;;;15.80;99.90;;;;;;5160765;27;20228;-81
2022/05/24 04:57:43;;;;;;;10.20;9.90;;;15.90;99.90;;;;;;5161266;27;20204;-82
2022/05/24 05:00:15;;;;;;;10.15;9.85;;;16.00;99.90;;;;;;5160669;27;20228;-82
2022/05/24 05:02:43;;;;;;;10.13;9.82;;;16.00;99.90;;;;;;5160816;27;20231;-82
2022/05/24 05:05:13;;;;;;;10.13;9.82;;;16.00;99.90;;;;;;5150344;27;20695;-82
2022/05/24 05:07:41;;;;;;;10.35;10.05;;;16.10;99.90;;;;;;5145063;27;20257;-82
2022/05/24 05:10:14;;;;;;;10.20;9.90;;;16.00;99.90;;;;;;5142847;27;20251;-82
2022/05/24 05:12:42;;;;;;;10.50;10.20;;;16.00;99.90;;;;;;5141498;27;20231;-82
2022/05/24 05:15:11;;;;;;;10.30;10.00;;;16.00;99.90;;;;;;5139768;27;20240;-82
2022/05/24 05:17:39;;;;;;;10.15;9.85;;;16.10;99.90;;;;;;5143109;27;20232;-82
2022/05/24 05:20:09;;;;;;;10.70;10.40;;;16.10;99.90;;;;;;5150353;27;20254;-82
2022/05/24 05:22:38;;;;;;;10.40;10.10;;;16.10;99.90;;;;;;5142287;27;20320;-82
2022/05/24 05:25:10;;;;;;;10.65;10.35;;;16.10;99.90;;;;;;5141177;27;20227;-82
2022/05/24 05:27:38;;;;;;;10.35;10.05;;;16.10;99.90;;;;;;5141622;27;20250;-82
2022/05/24 05:32:53;;;;;;;10.55;10.25;;;16.00;99.90;;;;;;5140547;27;20212;-82
2022/05/24 05:35:21;;;;;;;10.30;10.00;;;16.00;99.90;;;;;;5140103;27;20231;-82
2022/05/24 05:37:49;;;;;;;10.20;9.90;;;16.00;99.90;;;;;;5139641;27;20232;-81
2022/05/24 05:40:19;;;;;;;10.20;9.90;;;16.00;99.90;;;;;;5140552;27;20309;-82
2022/05/24 05:42:47;;;;;;;9.82;9.52;;;16.10;99.90;;;;;;5140575;27;20242;-81
2022/05/24 05:45:15;;;;;;;9.93;9.63;;;16.20;99.90;;;;;;5140585;27;20266;-82
2022/05/24 05:47:43;;;;;;;9.68;9.38;;;16.20;99.90;;;;;;5141076;27;20254;-81
2022/05/24 05:50:12;;;;;;;9.55;9.25;;;16.30;99.90;;;;;;5141926;27;20224;-82
2022/05/24 05:52:40;;;;;;;9.65;9.35;;;16.40;99.90;;;;;;5141106;27;20239;-83
2022/05/24 05:55:10;;;;;;;9.55;9.25;;;16.40;99.90;;;;;;5140274;27;20240;-82
2022/05/24 05:57:41;;;;;;;9.90;9.60;;;16.50;99.90;;;;;;5140279;27;20228;-81
2022/05/24 06:00:11;;;;;;;10.02;9.73;;;16.40;99.90;;;;;;5139787;27;20676;-82
2022/05/24 06:02:39;;;;;;;10.10;9.80;;;16.40;99.90;;;;;;5139755;27;20223;-82
2022/05/24 06:05:08;;;;;;;9.93;9.63;;;16.50;99.90;;;;;;5139513;27;20236;-82
2022/05/24 06:07:39;;;;;;;10.40;10.10;;;16.50;99.90;;;;;;5140039;27;20236;-81
2022/05/24 06:10:12;;;;;;;10.27;9.98;;;16.50;99.90;;;;;;5139849;27;20255;-81
2022/05/24 06:12:42;;;;;;;10.23;9.93;;;16.50;99.90;;;;;;5140071;27;20289;-82
2022/05/24 06:15:11;;;;;;;10.40;10.10;;;16.50;99.90;;;;;;5139713;27;20267;-81
2022/05/24 06:17:45;;;;;;;10.50;10.20;;;16.40;99.90;;;;;;5140272;27;20224;-82
2022/05/24 06:20:13;;;;;;;10.40;10.10;;;16.40;99.90;;;;;;5139588;27;20259;-82
2022/05/24 06:22:41;;;;;;;10.60;10.30;;;16.50;99.90;;;;;;5139663;27;20277;-82
2022/05/24 06:25:10;;;;;;;10.40;10.10;;;16.40;99.90;;;;;;5140241;27;20246;-82
2022/05/24 06:27:38;;;;;;;10.20;9.90;;;16.40;99.90;;;;;;5140514;27;20231;-82
2022/05/24 06:30:10;;;;;;;10.20;9.90;;;16.50;99.90;;;;;;5143496;27;20231;-82
2022/05/24 06:32:37;;;;;;;10.40;10.10;;;16.60;99.90;;;;;;5157997;27;20224;-82
2022/05/24 06:35:07;;;;;;;10.10;9.80;;;16.60;99.90;;;;;;5158267;27;20250;-82
2022/05/24 06:37:34;;;;;;;10.20;9.90;;;16.80;99.90;;;;;;5158679;27;20240;-82
2022/05/24 06:40:02;;;;;;;10.07;9.77;;;17.00;99.90;;;;;;5158904;27;20212;-82
2022/05/24 06:42:31;;;;;;;10.30;10.00;;;17.10;99.90;;;;;;5159324;27;20242;-83
2022/05/24 06:45:01;;;;;;;9.88;9.57;;;17.10;99.90;;;;;;5157983;27;20232;-82
2022/05/24 06:47:30;;;;;;;10.00;9.70;;;17.20;99.90;;;;;;5157477;27;20220;-82
2022/05/24 06:49:59;;;;;;;10.00;9.70;;;17.20;99.90;;;;;;5156494;27;20319;-83
2022/05/24 06:52:27;;;;;;;10.10;9.80;;;17.20;99.90;;;;;;5157652;27;20215;-83
2022/05/24 06:54:55;;;;;;;9.80;9.50;;;17.20;99.90;;;;;;5157580;27;20220;-82
2022/05/24 06:57:22;;;;;;;9.70;9.40;;;17.20;99.90;;;;;;5156177;27;20219;-82
2022/05/24 07:02:37;;;;;;;9.50;9.20;;;17.30;99.90;;;;;;5154722;27;20220;-82
2022/05/24 07:05:09;;;;;;;9.27;8.98;;;17.20;99.90;;;;;;5152786;27;20362;-83
2022/05/24 07:07:39;;;;;;;9.57;9.27;;;17.20;99.90;;;;;;5151815;27;20263;-82
2022/05/24 07:10:12;;;;;;;9.50;9.20;;;17.20;99.90;;;;;;5154136;27;20285;-83
2022/05/24 07:12:41;;;;;;;9.32;9.02;;;17.10;99.90;;;;;;5154722;27;20220;-83
2022/05/24 07:15:10;;;;;;;9.43;9.13;;;17.10;99.90;;;;;;5145658;27;20245;-83
2022/05/24 07:17:40;;;;;;;9.43;9.13;;;17.00;99.90;;;;;;5151143;27;20231;-82
2022/05/24 07:20:12;;;;;;;9.90;9.60;;;17.00;99.90;;;;;;5144149;27;20235;-83
2022/05/24 07:22:40;;;;;;;10.05;9.75;;;16.90;99.90;;;;;;5144287;27;20232;-82
2022/05/24 07:25:09;;;;;;;9.85;9.55;;;16.80;99.90;;;;;;5143765;27;20239;-83
2022/05/24 07:27:38;;;;;;;9.63;9.32;;;16.80;99.90;;;;;;5145108;27;20243;-82
2022/05/24 07:30:08;;;;;;;9.43;9.13;;;16.80;99.90;;;;;;5146004;27;20236;-82
2022/05/24 07:32:36;;;;;;;9.60;9.30;;;16.80;99.90;;;;;;5144374;27;20328;-83
2022/05/24 07:35:08;;;;;;;9.90;9.60;;;16.80;99.90;;;;;;5143621;27;20243;-83
2022/05/24 07:37:36;;;;;;;9.65;9.35;;;16.90;99.90;;;;;;5144841;27;20238;-84
2022/05/24 07:45:49;;;;;;;9.68;9.38;;;16.90;99.90;;;;;;5118763;27;20303;-82
2022/05/24 07:48:19;;;;;;;9.55;9.25;;;17.00;99.90;;;;;;5146771;27;20236;-83
2022/05/24 07:50:48;;;;;;;9.73;9.43;;;17.10;99.90;;;;;;5144049;27;20224;-83
2022/05/24 07:53:17;;;;;;;9.50;9.20;;;17.20;99.90;;;;;;5143575;27;20246;-83
2022/05/24 07:55:45;;;;;;;9.60;9.30;;;17.20;99.90;;;;;;5144410;27;20223;-83
2022/05/24 07:58:15;;;;;;;9.40;9.10;;;17.30;99.90;;;;;;5144231;27;20283;-84
2022/05/24 08:00:43;;;;;;;9.40;9.10;;;17.50;99.90;;;;;;5143160;27;20224;-83
2022/05/24 08:03:12;;;;;;;8.68;8.48;;;17.50;99.90;;;;;;5143376;27;20224;-84
2022/05/24 08:05:40;;;;;;;9.05;8.80;;;17.60;99.90;;;;;;5142798;27;20224;-83
2022/05/24 08:08:11;;;;;;;8.95;8.75;;;17.70;99.90;;;;;;5143136;27;20232;-84
2022/05/24 08:10:42;;;;;;;8.90;8.70;;;17.90;99.90;;;;;;5152567;27;20232;-83
2022/05/24 08:13:15;;;;;;;9.25;8.95;;;17.90;99.90;;;;;;5143808;27;20215;-82
2022/05/24 08:15:43;;;;;;;8.95;8.75;;;18.00;99.90;;;;;;5144345;27;20228;-83
2022/05/24 08:18:12;;;;;;;9.40;9.10;;;18.10;99.90;;;;;;5144562;27;20231;-83
2022/05/24 08:20:40;;;;;;;9.50;9.20;;;18.10;99.90;;;;;;5143350;27;20220;-83
2022/05/24 08:23:11;;;;;;;9.75;9.45;;;18.20;99.90;;;;;;5143167;27;20231;-83
2022/05/24 08:25:39;;;;;;;9.57;9.27;;;18.30;99.90;;;;;;5142486;27;20693;-83
2022/05/24 08:28:08;;;;;;;9.20;8.90;;;18.40;99.90;;;;;;5143778;27;20232;-83
2022/05/24 08:30:38;;;;;;;9.75;9.45;;;18.40;99.90;;;;;;5150504;27;20289;-83
2022/05/24 08:33:06;;;;;;;9.90;9.60;;;18.40;99.90;;;;;;5150099;27;20208;-83
2022/05/24 08:35:36;;;;;;;9.65;9.35;;;18.40;99.90;;;;;;5155123;27;20282;-83
2022/05/24 08:38:06;;;;;;;9.77;9.48;;;18.50;99.90;;;;;;5147144;27;20232;-82
2022/05/24 08:40:38;;;;;;;9.18;8.88;;;18.60;99.90;;;;;;5145381;27;20290;-82
2022/05/24 08:43:32;;;;;;;9.40;9.10;;;18.60;99.90;;;;;;5144983;27;20224;-81
2022/05/24 08:48:53;;;;;;;9.48;9.18;;;18.60;99.90;;;;;;5142763;27;20220;-81
2022/05/24 08:51:27;;;;;;;9.00;8.80;;;18.40;99.90;;;;;;5143357;27;20220;-81
2022/05/24 08:53:59;;;;;;;9.60;9.30;;;18.40;99.90;;;;;;5143124;27;20232;-81
2022/05/24 08:56:33;;;;;;;9.70;9.40;;;18.40;99.90;;;;;;5142466;27;20236;-81
2022/05/24 08:59:07;;;;;;;9.50;9.20;;;18.30;99.90;;;;;;5143385;27;20307;-82
2022/05/24 09:01:36;;;;;;;9.93;9.63;;;18.20;99.90;;;;;;5142213;27;20308;-80
2022/05/24 09:04:08;;;;;;;10.20;9.90;;;18.20;99.90;;;;;;5141642;27;20236;-81
2022/05/24 09:06:44;;;;;;;9.90;9.60;;;18.10;99.90;;;;;;5142396;27;20232;-82
2022/05/24 09:09:41;;;;;;;9.63;9.32;;;18.00;99.90;;;;;;5143221;27;20320;-81
2022/05/24 09:12:33;;;;;;;9.77;9.48;;;18.00;99.90;;;;;;5142230;27;20269;-82
2022/05/24 09:15:24;;;;;;;9.80;9.50;;;18.10;99.90;;;;;;5145939;27;20228;-82
2022/05/24 09:18:14;;;;;;;9.85;9.55;;;18.00;99.90;;;;;;5142362;27;20236;-81
2022/05/24 09:20:45;;;;;;;9.90;9.60;;;17.70;99.90;;;;;;5142433;27;20228;-81
2022/05/24 09:23:22;;;;;;;9.60;9.30;;;17.40;99.90;;;;;;5141450;27;20228;-80
2022/05/24 09:26:00;;;;;;;9.80;9.50;;;17.00;99.90;;;;;;5142521;27;20227;-81
2022/05/24 09:28:50;;;;;;;9.70;9.40;;;16.50;99.90;;;;;;5142220;27;20232;-82
2022/05/24 09:31:33;;;;;;;9.95;9.65;;;16.30;99.90;;;;;;5142961;27;20289;-81
2022/05/24 09:34:04;;;;;;;9.75;9.45;;;16.00;99.90;;;;;;5142534;27;20238;-82
2022/05/24 09:36:38;;;;;;;9.60;9.30;;;15.80;99.90;;;;;;5142027;27;20232;-80
2022/05/24 09:39:21;;;;;;;9.60;9.30;;;15.60;99.90;;;;;;5141616;27;20232;-80
2022/05/24 09:41:56;;;;;;;9.95;9.65;;;15.60;99.90;;;;;;5141439;27;20252;-80
2022/05/24 09:44:31;;;;;;;9.55;9.25;;;15.70;99.90;;;;;;5141528;27;20289;-80
2022/05/24 09:47:00;;;;;;;9.43;9.13;;;15.70;99.90;;;;;;5141794;27;20945;-80
2022/05/24 09:49:33;;;;;;;9.60;9.30;;;15.80;99.90;;;;;;5141710;27;20234;-80
2022/05/24 09:52:12;;;;;;;9.55;9.25;;;15.80;99.90;;;;;;5142227;27;20233;-80
2022/05/24 09:54:55;;;;;;;9.73;9.43;;;16.00;99.90;;;;;;5142691;27;20240;-82
2022/05/24 09:57:25;;;;;;;9.52;9.23;;;16.10;99.90;;;;;;5143088;27;20236;-80
2022/05/24 10:00:13;;;;;;;9.57;9.27;;;16.30;99.90;;;;;;5144663;27;20232;-80
2022/05/24 10:02:42;;;;;;;9.05;8.82;;;16.40;99.90;;;;;;5144751;27;20289;-80
2022/05/24 10:05:23;;;;;;;9.10;8.80;;;16.40;99.90;;;;;;5187334;22;20247;-86
2022/05/24 10:10:56;;;;;;;8.98;8.77;;;16.50;99.90;;;;;;5162693;27;20226;-84
2022/05/24 10:13:43;;;;;;;9.00;8.80;;;16.50;99.90;;;;;;5162807;27;20313;-84
2022/05/24 10:16:32;;;;;;;9.02;8.82;;;16.40;99.90;;;;;;5143742;27;20220;-87
2022/05/24 10:19:27;;;;;;;9.25;8.95;;;16.40;99.90;;;;;;5143099;27;20316;-84
2022/05/24 10:22:05;;;;;;;9.32;9.02;;;16.30;99.90;;;;;;5144327;27;20220;-84
2022/05/24 10:24:52;;;;;;;9.10;8.80;;;16.40;99.90;;;;;;5142898;27;20360;-85
2022/05/24 10:27:29;;;;;;;9.23;8.93;;;16.40;99.90;;;;;;5144205;27;20220;-84
2022/05/24 10:30:09;;;;;;;9.50;9.20;;;16.40;99.90;;;;;;5144402;27;20220;-84
2022/05/24 10:39:14;;;;;;;10.15;9.85;;;16.10;99.90;;;;;;5143637;27;20224;-85
2022/05/24 10:42:03;;;;;;;10.10;9.80;;;16.10;99.90;;;;;;5143156;27;20231;-85
2022/05/24 10:44:49;;;;;;;10.07;9.77;;;16.20;99.90;;;;;;5143074;27;20242;-85
2022/05/24 10:47:27;;;;;;;10.00;9.70;;;16.40;99.90;;;;;;5143734;27;20285;-85
2022/05/24 10:50:03;;;;;;;9.70;9.40;;;16.40;99.90;;;;;;5143881;27;20224;-85
2022/05/24 10:52:44;;;;;;;9.57;9.27;;;16.30;99.90;;;;;;5145242;27;20212;-86
2022/05/24 10:55:20;;;;;;;9.95;9.65;;;16.40;99.90;;;;;;5144237;27;20234;-84
2022/05/24 10:57:58;;;;;;;10.15;9.85;;;16.40;99.90;;;;;;5146544;27;20236;-85
2022/05/24 11:00:36;;;;;;;9.98;9.68;;;16.50;99.90;;;;;;5146157;27;20232;-85
2022/05/24 11:03:14;;;;;;;10.15;9.85;;;16.60;99.90;;;;;;5146285;27;20231;-84
2022/05/24 11:05:52;;;;;;;10.00;9.70;;;16.80;99.90;;;;;;5145320;27;20243;-85
2022/05/24 11:08:40;;;;;;;10.43;10.13;;;16.80;99.90;;;;;;5145857;27;20235;-85
2022/05/24 11:11:18;;;;;;;10.27;9.98;;;16.90;99.90;;;;;;5145387;27;20216;-86
2022/05/24 11:13:56;;;;;;;10.38;10.07;;;17.10;99.90;;;;;;5145430;27;20216;-85
2022/05/24 11:16:46;;;;;;;10.20;9.90;;;17.40;99.90;;;;;;5145772;27;20228;-85
2022/05/24 11:19:24;;;;;;;10.18;9.88;;;17.50;99.90;;;;;;5145679;27;20310;-85
2022/05/24 11:22:08;;;;;;;10.40;10.10;;;17.70;99.90;;;;;;5146418;27;20285;-85
2022/05/24 11:24:47;;;;;;;10.35;10.05;;;17.70;99.90;;;;;;5145280;27;20232;-85
2022/05/24 11:27:18;;;;;;;11.00;10.70;;;17.80;99.90;;;;;;5145647;27;20227;-85
2022/05/24 11:35:29;;;;;;;11.10;10.80;;;18.30;99.90;;;;;;5156484;27;20216;-85
2022/05/24 11:38:26;;;;;;;11.70;11.30;;;18.50;99.90;;;;;;5159571;27;20216;-86
2022/05/24 11:41:29;;;;;;;11.25;10.95;;;18.70;99.90;;;;;;5152002;27;20220;-86
2022/05/24 11:44:08;;;;;;;11.20;10.90;;;19.20;99.90;;;;;;5154900;27;20258;-85
2022/05/24 11:46:46;;;;;;;11.10;10.80;;;19.60;99.90;;;;;;5160418;27;20239;-86
2022/05/24 11:49:58;;;;;;;11.15;10.85;;;19.70;99.90;;;;;;5161409;27;20216;-84
2022/05/24 11:53:07;;;;;;;10.90;10.60;;;20.00;99.90;;;;;;5156502;27;20212;-86
2022/05/24 11:56:19;;;;;;;11.00;10.70;;;20.00;99.90;;;;;;5161897;27;20216;-85
2022/05/24 11:59:04;;;;;;;11.10;10.80;;;19.90;99.90;;;;;;5162498;27;20208;-84
2022/05/24 12:01:50;;;;;;;11.40;11.00;;;19.80;99.90;;;;;;5162782;27;20228;-83
2022/05/24 12:10:59;;;;;;;10.85;10.55;;;20.60;99.90;;;;;;5162687;27;20260;-85
2022/05/24 12:13:38;;;;;;;11.13;10.82;;;21.20;99.90;;;;;;5161932;27;20231;-85
2022/05/24 12:16:32;;;;;;;11.10;10.80;;;21.30;99.90;;;;;;5161908;27;20224;-83
2022/05/24 12:19:03;;;;;;;11.07;10.77;;;21.10;99.90;;;;;;5162327;27;20229;-84
2022/05/24 12:22:06;;;;;;;10.85;10.55;;;20.90;99.90;;;;;;5162375;27;20220;-85
2022/05/24 12:25:01;;;;;;;10.70;10.40;;;20.90;99.90;;;;;;5162088;27;20275;-84
2022/05/24 12:27:58;;;;;;;11.27;10.98;;;21.20;99.90;;;;;;5162090;27;20220;-83
2022/05/24 12:30:55;;;;;;;11.27;10.98;;;21.80;99.90;;;;;;5161860;27;20223;-83
2022/05/24 12:33:41;;;;;;;11.50;11.15;;;22.50;99.90;;;;;;5161745;27;20208;-83
2022/05/24 12:36:28;;;;;;;11.25;10.95;;;23.00;99.90;;;;;;5160410;27;20231;-84
2022/05/24 12:39:06;;;;;;;11.55;11.15;;;23.10;99.90;;;;;;5149482;27;20235;-85
2022/05/24 12:41:46;;;;;;;11.27;10.98;;;23.00;99.90;;;;;;5146056;27;20232;-85
2022/05/24 12:44:22;;;;;;;11.20;10.90;;;22.90;99.90;;;;;;5146371;27;20220;-86
2022/05/24 12:46:55;;;;;;;11.45;11.07;;;22.80;99.90;;;;;;5145248;27;20254;-84
2022/05/24 12:49:30;;;;;;;11.60;11.20;;;22.80;99.90;;;;;;5145872;27;20235;-85
2022/05/24 12:52:16;;;;;;;11.32;11.02;;;22.90;99.90;;;;;;5144751;27;20262;-86
2022/05/24 12:54:47;;;;;;;11.57;11.18;;;23.10;99.90;;;;;;5143093;27;20232;-86
2022/05/24 12:57:18;;;;;;;10.90;10.60;;;23.00;99.90;;;;;;5143016;27;20262;-86
2022/05/24 13:00:14;;;;;;;10.73;10.43;;;22.90;99.90;;;;;;5143023;27;20315;-86
2022/05/24 13:02:50;;;;;;;10.80;10.50;;;23.00;99.90;;;;;;5142805;27;20220;-85
2022/05/24 13:05:28;;;;;;;10.90;10.60;;;23.10;99.90;;;;;;5142596;27;20219;-85
2022/05/24 13:07:59;;;;;;;10.80;10.50;;;23.10;99.90;;;;;;5144449;27;20234;-85
2022/05/24 13:10:37;;;;;;;10.85;10.55;;;22.70;99.90;;;;;;5143174;27;20228;-86
2022/05/24 13:13:14;;;;;;;10.68;10.38;;;22.20;99.90;;;;;;5143844;27;20243;-85
2022/05/24 13:15:52;;;;;;;11.13;10.82;;;21.90;99.90;;;;;;5143644;27;20265;-84
2022/05/24 13:18:23;;;;;;;11.25;10.95;;;21.50;99.90;;;;;;5144293;27;20232;-85
2022/05/24 13:21:00;;;;;;;11.25;10.95;;;21.00;99.90;;;;;;5144256;27;20284;-86
2022/05/24 13:23:33;;;;;;;11.50;11.10;;;20.80;99.90;;;;;;5143364;27;20231;-86
2022/05/24 13:26:17;;;;;;;11.50;11.10;;;20.80;99.90;;;;;;5144636;27;20311;-86
2022/05/24 13:28:48;;;;;;;11.52;11.13;;;20.70;99.90;;;;;;5145012;27;20228;-85
2022/05/24 13:34:23;;;;;;;11.13;10.82;;;20.70;99.90;;;;;;5143855;27;20232;-85
2022/05/24 13:39:53;;;;;;;10.60;10.30;;;21.00;99.90;;;;;;5143331;27;20259;-85
2022/05/24 13:42:33;;;;;;;10.70;10.40;;;21.00;99.90;;;;;;5145166;27;20232;-86
2022/05/24 13:45:19;;;;;;;10.73;10.43;;;20.70;99.90;;;;;;5144593;27;20331;-86
2022/05/24 13:47:58;;;;;;;10.85;10.55;;;20.50;99.90;;;;;;5151212;27;20219;-85
2022/05/24 13:50:46;;;;;;;10.63;10.32;;;20.30;99.90;;;;;;5152201;27;20232;-86
2022/05/24 13:53:32;;;;;;;10.80;10.50;;;20.10;99.90;;;;;;5152462;27;20446;-86
2022/05/24 13:56:02;;;;;;;10.88;10.57;;;19.90;99.90;;;;;;5156644;27;20224;-86
2022/05/24 13:58:39;;;;;;;10.65;10.35;;;19.70;99.90;;;;;;5149508;27;20249;-85
2022/05/24 14:01:10;;;;;;;10.50;10.20;;;19.60;99.90;;;;;;5145768;27;20239;-86
2022/05/24 14:03:56;;;;;;;11.02;10.73;;;19.40;99.90;;;;;;5144518;27;20274;-84
2022/05/24 14:06:26;;;;;;;10.88;10.57;;;19.00;99.90;;;;;;5144960;27;20228;-86
2022/05/24 14:09:04;;;;;;;10.80;10.50;;;19.00;99.90;;;;;;5143724;27;20265;-86
2022/05/24 14:14:23;;;;;;;10.80;10.50;;;19.60;99.90;;;;;;5142292;27;20247;-86
2022/05/24 14:16:53;;;;;;;10.77;10.48;;;19.80;99.90;;;;;;5142536;27;20322;-86
2022/05/24 14:19:29;;;;;;;10.73;10.43;;;20.40;99.90;;;;;;5142832;27;20236;-85
2022/05/24 14:21:59;;;;;;;10.40;10.10;;;20.80;99.90;;;;;;5142591;27;20231;-86